sensor_id;sensor_type;location;lat;lon;timestamp;P1;P2;P0
51258;PMS7003;37327;54.254;18.504;2023-02-28T00:02:16;3;0;0
51258;PMS7003;37327;54.254;18.504;2023-02-28T00:05:31;0;0;0
51258;PMS7003;37327;54.254;18.504;2023-02-28T00:08:46;1;0;0
51258;PMS7003;37327;54.254;18.504;2023-02-28T00:12:01;1;1;1
51258;PMS7003;37327;54.254;18.504;2023-02-28T00:15:23;2;0;0
51258;PMS7003;37327;54.254;18.504;2023-02-28T00:19:03;1;0;0
51258;PMS7003;37327;54.254;18.504;2023-02-28T00:22:19;0;0;0
51258;PMS7003;37327;54.254;18.504;2023-02-28T00:25:34;0;0;0
51258;PMS7003;37327;54.254;18.504;2023-02-28T00:28:49;0;0;0
51258;PMS7003;37327;54.254;18.504;2023-02-28T00:32:06;0;0;0
51258;PMS7003;37327;54.254;18.504;2023-02-28T00:35:21;0;0;0
51258;PMS7003;37327;54.254;18.504;2023-02-28T00:38:36;0;0;0
51258;PMS7003;37327;54.254;18.504;2023-02-28T00:41:51;0;0;0
51258;PMS7003;37327;54.254;18.504;2023-02-28T00:45:06;0;0;0
51258;PMS7003;37327;54.254;18.504;2023-02-28T00:48:21;0;0;0
51258;PMS7003;37327;54.254;18.504;2023-02-28T00:51:36;0;0;0
51258;PMS7003;37327;54.254;18.504;2023-02-28T00:55:15;1;0;0
51258;PMS7003;37327;54.254;18.504;2023-02-28T00:58:31;0;0;0
51258;PMS7003;37327;54.254;18.504;2023-02-28T01:01:46;1;0;0
51258;PMS7003;37327;54.254;18.504;2023-02-28T01:05:01;2;0;0
51258;PMS7003;37327;54.254;18.504;2023-02-28T01:08:42;3;1;0
51258;PMS7003;37327;54.254;18.504;2023-02-28T01:11:57;1;1;1
51258;PMS7003;37327;54.254;18.504;2023-02-28T01:15:14;0;0;0
51258;PMS7003;37327;54.254;18.504;2023-02-28T01:18:28;1;1;1
51258;PMS7003;37327;54.254;18.504;2023-02-28T01:22:09;3;2;2
51258;PMS7003;37327;54.254;18.504;2023-02-28T01:25:23;1;0;0
51258;PMS7003;37327;54.254;18.504;2023-02-28T01:28:38;0;0;0
51258;PMS7003;37327;54.254;18.504;2023-02-28T01:31:52;2;0;0
51258;PMS7003;37327;54.254;18.504;2023-02-28T01:35:33;0;0;0
51258;PMS7003;37327;54.254;18.504;2023-02-28T01:38:48;0;0;0
51258;PMS7003;37327;54.254;18.504;2023-02-28T01:42:03;0;0;0
51258;PMS7003;37327;54.254;18.504;2023-02-28T01:49:16;1;0;0
51258;PMS7003;37327;54.254;18.504;2023-02-28T01:52:32;0;0;0
51258;PMS7003;37327;54.254;18.504;2023-02-28T01:55:48;0;0;0
51258;PMS7003;37327;54.254;18.504;2023-02-28T01:59:06;0;0;0
51258;PMS7003;37327;54.254;18.504;2023-02-28T02:02:47;0;0;0
51258;PMS7003;37327;54.254;18.504;2023-02-28T02:06:05;0;0;0
51258;PMS7003;37327;54.254;18.504;2023-02-28T02:09:20;1;0;0
51258;PMS7003;37327;54.254;18.504;2023-02-28T02:23:29;0;0;0
51258;PMS7003;37327;54.254;18.504;2023-02-28T02:44:27;0;0;0
51258;PMS7003;37327;54.254;18.504;2023-02-28T02:48:19;0;0;0
51258;PMS7003;37327;54.254;18.504;2023-02-28T02:51:40;0;0;0
51258;PMS7003;37327;54.254;18.504;2023-02-28T02:54:57;0;0;0
51258;PMS7003;37327;54.254;18.504;2023-02-28T02:58:16;0;0;0
51258;PMS7003;37327;54.254;18.504;2023-02-28T03:01:33;0;0;0
51258;PMS7003;37327;54.254;18.504;2023-02-28T03:05:21;1;0;0
51258;PMS7003;37327;54.254;18.504;2023-02-28T03:08:40;0;0;0
51258;PMS7003;37327;54.254;18.504;2023-02-28T03:11:55;0;0;0
51258;PMS7003;37327;54.254;18.504;2023-02-28T03:18:37;0;0;0
51258;PMS7003;37327;54.254;18.504;2023-02-28T03:22:29;0;0;0
51258;PMS7003;37327;54.254;18.504;2023-02-28T03:29:15;0;0;0
51258;PMS7003;37327;54.254;18.504;2023-02-28T03:36:35;0;0;0
51258;PMS7003;37327;54.254;18.504;2023-02-28T03:39:59;0;0;0
51258;PMS7003;37327;54.254;18.504;2023-02-28T03:43:55;0;0;0
51258;PMS7003;37327;54.254;18.504;2023-02-28T03:47:19;1;0;0
51258;PMS7003;37327;54.254;18.504;2023-02-28T03:50:40;0;0;0
51258;PMS7003;37327;54.254;18.504;2023-02-28T03:54:01;0;0;0
51258;PMS7003;37327;54.254;18.504;2023-02-28T04:01:24;0;0;0
51258;PMS7003;37327;54.254;18.504;2023-02-28T04:04:45;0;0;0
51258;PMS7003;37327;54.254;18.504;2023-02-28T04:11:27;0;0;0
51258;PMS7003;37327;54.254;18.504;2023-02-28T04:15:14;0;0;0
51258;PMS7003;37327;54.254;18.504;2023-02-28T04:18:29;0;0;0
51258;PMS7003;37327;54.254;18.504;2023-02-28T04:21:44;0;0;0
51258;PMS7003;37327;54.254;18.504;2023-02-28T04:25:00;0;0;0
51258;PMS7003;37327;54.254;18.504;2023-02-28T04:28:14;0;0;0
51258;PMS7003;37327;54.254;18.504;2023-02-28T04:31:55;0;0;0
51258;PMS7003;37327;54.254;18.504;2023-02-28T04:35:13;0;0;0
51258;PMS7003;37327;54.254;18.504;2023-02-28T04:38:27;0;0;0
51258;PMS7003;37327;54.254;18.504;2023-02-28T04:41:42;0;0;0
51258;PMS7003;37327;54.254;18.504;2023-02-28T04:45:22;2;0;0
51258;PMS7003;37327;54.254;18.504;2023-02-28T04:48:36;0;0;0
51258;PMS7003;37327;54.254;18.504;2023-02-28T04:51:52;0;0;0
51258;PMS7003;37327;54.254;18.504;2023-02-28T04:55:09;0;0;0
51258;PMS7003;37327;54.254;18.504;2023-02-28T04:58:24;0;0;0
51258;PMS7003;37327;54.254;18.504;2023-02-28T05:01:39;0;0;0
51258;PMS7003;37327;54.254;18.504;2023-02-28T05:04:53;1;0;0
51258;PMS7003;37327;54.254;18.504;2023-02-28T05:08:08;0;0;0
51258;PMS7003;37327;54.254;18.504;2023-02-28T05:11:24;1;0;0
51258;PMS7003;37327;54.254;18.504;2023-02-28T05:15:14;4;3;3
51258;PMS7003;37327;54.254;18.504;2023-02-28T05:18:29;4;3;3
51258;PMS7003;37327;54.254;18.504;2023-02-28T05:25:33;7;3;2
51258;PMS7003;37327;54.254;18.504;2023-02-28T05:28:47;11;6;6
51258;PMS7003;37327;54.254;18.504;2023-02-28T05:32:02;23;17;12
51258;PMS7003;37327;54.254;18.504;2023-02-28T05:35:16;15;10;8
51258;PMS7003;37327;54.254;18.504;2023-02-28T05:38:57;24;18;12
51258;PMS7003;37327;54.254;18.504;2023-02-28T05:42:11;18;11;6
51258;PMS7003;37327;54.254;18.504;2023-02-28T05:45:26;23;20;11
51258;PMS7003;37327;54.254;18.504;2023-02-28T05:48:41;23;17;10
51258;PMS7003;37327;54.254;18.504;2023-02-28T05:52:25;21;13;8
51258;PMS7003;37327;54.254;18.504;2023-02-28T05:55:39;10;7;5
51258;PMS7003;37327;54.254;18.504;2023-02-28T05:58:54;6;5;4
51258;PMS7003;37327;54.254;18.504;2023-02-28T06:02:13;4;3;2
51258;PMS7003;37327;54.254;18.504;2023-02-28T06:05:54;2;0;0
51258;PMS7003;37327;54.254;18.504;2023-02-28T06:09:08;6;2;1
51258;PMS7003;37327;54.254;18.504;2023-02-28T06:12:23;2;1;1
51258;PMS7003;37327;54.254;18.504;2023-02-28T06:15:37;2;1;1
51258;PMS7003;37327;54.254;18.504;2023-02-28T06:19:17;1;1;1
51258;PMS7003;37327;54.254;18.504;2023-02-28T06:22:32;1;0;0
51258;PMS7003;37327;54.254;18.504;2023-02-28T06:25:46;3;0;0
51258;PMS7003;37327;54.254;18.504;2023-02-28T06:29:02;0;0;0
51258;PMS7003;37327;54.254;18.504;2023-02-28T06:32:42;1;0;0
51258;PMS7003;37327;54.254;18.504;2023-02-28T06:35:56;1;0;0
51258;PMS7003;37327;54.254;18.504;2023-02-28T06:39:11;3;0;0
51258;PMS7003;37327;54.254;18.504;2023-02-28T06:42:29;1;1;0
51258;PMS7003;37327;54.254;18.504;2023-02-28T07:18:39;0;0;0
51258;PMS7003;37327;54.254;18.504;2023-02-28T07:21:56;2;1;0
51258;PMS7003;37327;54.254;18.504;2023-02-28T07:25:13;0;0;0
51258;PMS7003;37327;54.254;18.504;2023-02-28T07:28:32;1;1;1
51258;PMS7003;37327;54.254;18.504;2023-02-28T07:31:49;2;2;2
51258;PMS7003;37327;54.254;18.504;2023-02-28T07:35:09;2;0;0
51258;PMS7003;37327;54.254;18.504;2023-02-28T07:38:26;0;0;0
51258;PMS7003;37327;54.254;18.504;2023-02-28T07:41:44;1;0;0
51258;PMS7003;37327;54.254;18.504;2023-02-28T07:45:02;0;0;0
51258;PMS7003;37327;54.254;18.504;2023-02-28T07:48:19;1;0;0
51258;PMS7003;37327;54.254;18.504;2023-02-28T07:51:37;0;0;0
51258;PMS7003;37327;54.254;18.504;2023-02-28T07:54:54;1;0;0
51258;PMS7003;37327;54.254;18.504;2023-02-28T07:58:11;0;0;0
51258;PMS7003;37327;54.254;18.504;2023-02-28T08:01:28;0;0;0
51258;PMS7003;37327;54.254;18.504;2023-02-28T08:04:45;0;0;0
51258;PMS7003;37327;54.254;18.504;2023-02-28T08:08:05;0;0;0
51258;PMS7003;37327;54.254;18.504;2023-02-28T08:11:23;0;0;0
51258;PMS7003;37327;54.254;18.504;2023-02-28T08:14:40;0;0;0
51258;PMS7003;37327;54.254;18.504;2023-02-28T08:17:58;0;0;0
51258;PMS7003;37327;54.254;18.504;2023-02-28T08:21:15;0;0;0
51258;PMS7003;37327;54.254;18.504;2023-02-28T08:24:33;1;0;0
51258;PMS7003;37327;54.254;18.504;2023-02-28T08:27:51;0;0;0
51258;PMS7003;37327;54.254;18.504;2023-02-28T08:31:09;0;0;0
51258;PMS7003;37327;54.254;18.504;2023-02-28T08:34:29;0;0;0
51258;PMS7003;37327;54.254;18.504;2023-02-28T08:37:49;1;0;0
51258;PMS7003;37327;54.254;18.504;2023-02-28T08:41:07;0;0;0
51258;PMS7003;37327;54.254;18.504;2023-02-28T08:44:27;1;0;0
51258;PMS7003;37327;54.254;18.504;2023-02-28T08:47:44;0;0;0
51258;PMS7003;37327;54.254;18.504;2023-02-28T08:51:03;0;0;0
51258;PMS7003;37327;54.254;18.504;2023-02-28T08:54:25;0;0;0
51258;PMS7003;37327;54.254;18.504;2023-02-28T08:57:46;0;0;0
51258;PMS7003;37327;54.254;18.504;2023-02-28T09:04:30;0;0;0
51258;PMS7003;37327;54.254;18.504;2023-02-28T09:07:47;2;0;0
51258;PMS7003;37327;54.254;18.504;2023-02-28T09:11:06;0;0;0
51258;PMS7003;37327;54.254;18.504;2023-02-28T09:14:24;0;0;0
51258;PMS7003;37327;54.254;18.504;2023-02-28T09:17:42;2;0;0
51258;PMS7003;37327;54.254;18.504;2023-02-28T09:20:59;0;0;0
51258;PMS7003;37327;54.254;18.504;2023-02-28T09:24:19;0;0;0
51258;PMS7003;37327;54.254;18.504;2023-02-28T09:27:37;0;0;0
51258;PMS7003;37327;54.254;18.504;2023-02-28T09:30:54;1;0;0
51258;PMS7003;37327;54.254;18.504;2023-02-28T09:34:14;0;0;0
51258;PMS7003;37327;54.254;18.504;2023-02-28T09:37:33;0;0;0
51258;PMS7003;37327;54.254;18.504;2023-02-28T09:40:51;0;0;0
51258;PMS7003;37327;54.254;18.504;2023-02-28T09:44:13;0;0;0
51258;PMS7003;37327;54.254;18.504;2023-02-28T09:47:43;0;0;0
51258;PMS7003;37327;54.254;18.504;2023-02-28T09:51:09;0;0;0
51258;PMS7003;37327;54.254;18.504;2023-02-28T09:54:35;0;0;0
51258;PMS7003;37327;54.254;18.504;2023-02-28T09:57:54;1;1;1
51258;PMS7003;37327;54.254;18.504;2023-02-28T10:01:24;0;0;0
51258;PMS7003;37327;54.254;18.504;2023-02-28T10:08:18;0;0;0
51258;PMS7003;37327;54.254;18.504;2023-02-28T10:11:41;0;0;0
51258;PMS7003;37327;54.254;18.504;2023-02-28T10:15:02;0;0;0
51258;PMS7003;37327;54.254;18.504;2023-02-28T10:18:22;0;0;0
51258;PMS7003;37327;54.254;18.504;2023-02-28T10:21:46;0;0;0
51258;PMS7003;37327;54.254;18.504;2023-02-28T10:28:36;1;0;0
51258;PMS7003;37327;54.254;18.504;2023-02-28T10:31:53;1;0;0
51258;PMS7003;37327;54.254;18.504;2023-02-28T10:38:40;1;1;0
51258;PMS7003;37327;54.254;18.504;2023-02-28T10:41:57;4;1;0
51258;PMS7003;37327;54.254;18.504;2023-02-28T10:45:15;1;0;0
51258;PMS7003;37327;54.254;18.504;2023-02-28T10:48:34;1;1;1
51258;PMS7003;37327;54.254;18.504;2023-02-28T10:52:01;4;1;1
51258;PMS7003;37327;54.254;18.504;2023-02-28T10:55:22;1;1;1
51258;PMS7003;37327;54.254;18.504;2023-02-28T11:02:28;1;0;0
51258;PMS7003;37327;54.254;18.504;2023-02-28T11:05:39;2;0;0
51258;PMS7003;37327;54.254;18.504;2023-02-28T11:09:06;2;0;0
51258;PMS7003;37327;54.254;18.504;2023-02-28T11:12:37;1;0;0
51258;PMS7003;37327;54.254;18.504;2023-02-28T11:15:59;0;0;0
51258;PMS7003;37327;54.254;18.504;2023-02-28T11:19:22;1;1;1
51258;PMS7003;37327;54.254;18.504;2023-02-28T11:22:45;0;0;0
51258;PMS7003;37327;54.254;18.504;2023-02-28T11:26:04;0;0;0
51258;PMS7003;37327;54.254;18.504;2023-02-28T11:29:28;0;0;0
51258;PMS7003;37327;54.254;18.504;2023-02-28T11:32:50;2;1;1
51258;PMS7003;37327;54.254;18.504;2023-02-28T11:36:12;1;1;1
51258;PMS7003;37327;54.254;18.504;2023-02-28T11:39:33;2;0;0
51258;PMS7003;37327;54.254;18.504;2023-02-28T11:42:56;2;1;0
51258;PMS7003;37327;54.254;18.504;2023-02-28T11:46:29;1;1;1
51258;PMS7003;37327;54.254;18.504;2023-02-28T11:52:13;1;0;0
51258;PMS7003;37327;54.254;18.504;2023-02-28T11:55:42;0;0;0
51258;PMS7003;37327;54.254;18.504;2023-02-28T12:06:08;0;0;0
51258;PMS7003;37327;54.254;18.504;2023-02-28T12:13:09;0;0;0
51258;PMS7003;37327;54.254;18.504;2023-02-28T12:27:03;2;0;0
51258;PMS7003;37327;54.254;18.504;2023-02-28T12:30:28;0;0;0
51258;PMS7003;37327;54.254;18.504;2023-02-28T12:33:54;1;1;1
51258;PMS7003;37327;54.254;18.504;2023-02-28T12:37:19;0;0;0
51258;PMS7003;37327;54.254;18.504;2023-02-28T12:40:45;0;0;0
51258;PMS7003;37327;54.254;18.504;2023-02-28T12:47:41;0;0;0
51258;PMS7003;37327;54.254;18.504;2023-02-28T12:51:01;0;0;0
51258;PMS7003;37327;54.254;18.504;2023-02-28T12:54:25;1;0;0
51258;PMS7003;37327;54.254;18.504;2023-02-28T13:11:53;2;1;0
51258;PMS7003;37327;54.254;18.504;2023-02-28T13:18:44;1;1;1
51258;PMS7003;37327;54.254;18.504;2023-02-28T13:22:03;0;0;0
51258;PMS7003;37327;54.254;18.504;2023-02-28T13:32:18;0;0;0
51258;PMS7003;37327;54.254;18.504;2023-02-28T13:35:43;3;0;0
51258;PMS7003;37327;54.254;18.504;2023-02-28T13:39:02;1;1;1
51258;PMS7003;37327;54.254;18.504;2023-02-28T13:46:16;2;0;0
51258;PMS7003;37327;54.254;18.504;2023-02-28T13:49:27;0;0;0
51258;PMS7003;37327;54.254;18.504;2023-02-28T13:56:25;1;0;0
51258;PMS7003;37327;54.254;18.504;2023-02-28T13:59:56;1;0;0
51258;PMS7003;37327;54.254;18.504;2023-02-28T14:06:53;1;1;1
51258;PMS7003;37327;54.254;18.504;2023-02-28T14:10:21;0;0;0
51258;PMS7003;37327;54.254;18.504;2023-02-28T14:13:45;1;0;0
51258;PMS7003;37327;54.254;18.504;2023-02-28T14:17:04;1;0;0
51258;PMS7003;37327;54.254;18.504;2023-02-28T14:20:26;0;0;0
51258;PMS7003;37327;54.254;18.504;2023-02-28T14:37:44;0;0;0
51258;PMS7003;37327;54.254;18.504;2023-02-28T14:41:04;2;0;0
51258;PMS7003;37327;54.254;18.504;2023-02-28T14:44:27;0;0;0
51258;PMS7003;37327;54.254;18.504;2023-02-28T14:47:45;1;0;0
51258;PMS7003;37327;54.254;18.504;2023-02-28T14:51:04;0;0;0
51258;PMS7003;37327;54.254;18.504;2023-02-28T14:54:22;0;0;0
51258;PMS7003;37327;54.254;18.504;2023-02-28T14:57:51;1;0;0
51258;PMS7003;37327;54.254;18.504;2023-02-28T15:01:09;0;0;0
51258;PMS7003;37327;54.254;18.504;2023-02-28T15:04:31;4;0;0
51258;PMS7003;37327;54.254;18.504;2023-02-28T15:07:59;0;0;0
51258;PMS7003;37327;54.254;18.504;2023-02-28T15:11:20;0;0;0
51258;PMS7003;37327;54.254;18.504;2023-02-28T15:14:39;0;0;0
51258;PMS7003;37327;54.254;18.504;2023-02-28T15:18:02;1;0;0
51258;PMS7003;37327;54.254;18.504;2023-02-28T15:21:24;0;0;0
51258;PMS7003;37327;54.254;18.504;2023-02-28T15:24:50;1;0;0
51258;PMS7003;37327;54.254;18.504;2023-02-28T15:28:14;0;0;0
51258;PMS7003;37327;54.254;18.504;2023-02-28T15:31:45;0;0;0
51258;PMS7003;37327;54.254;18.504;2023-02-28T15:38:35;0;0;0
51258;PMS7003;37327;54.254;18.504;2023-02-28T15:48:57;1;0;0
51258;PMS7003;37327;54.254;18.504;2023-02-28T15:52:17;1;1;1
51258;PMS7003;37327;54.254;18.504;2023-02-28T15:55:38;1;0;0
51258;PMS7003;37327;54.254;18.504;2023-02-28T15:59:02;2;0;0
51258;PMS7003;37327;54.254;18.504;2023-02-28T16:09:24;0;0;0
51258;PMS7003;37327;54.254;18.504;2023-02-28T16:12:45;3;2;1
51258;PMS7003;37327;54.254;18.504;2023-02-28T16:16:03;1;0;0
51258;PMS7003;37327;54.254;18.504;2023-02-28T16:19:23;0;0;0
51258;PMS7003;37327;54.254;18.504;2023-02-28T16:22:41;2;2;1
51258;PMS7003;37327;54.254;18.504;2023-02-28T16:25:59;2;1;1
51258;PMS7003;37327;54.254;18.504;2023-02-28T16:32:43;3;0;0
51258;PMS7003;37327;54.254;18.504;2023-02-28T16:36:00;1;1;1
51258;PMS7003;37327;54.254;18.504;2023-02-28T16:39:18;2;2;1
51258;PMS7003;37327;54.254;18.504;2023-02-28T16:42:39;4;2;1
51258;PMS7003;37327;54.254;18.504;2023-02-28T16:45:58;3;2;2
51258;PMS7003;37327;54.254;18.504;2023-02-28T16:49:20;6;5;3
51258;PMS7003;37327;54.254;18.504;2023-02-28T16:52:39;2;1;1
51258;PMS7003;37327;54.254;18.504;2023-02-28T16:55:58;3;3;2
51258;PMS7003;37327;54.254;18.504;2023-02-28T17:02:42;10;8;7
51258;PMS7003;37327;54.254;18.504;2023-02-28T17:05:59;7;5;4
51258;PMS7003;37327;54.254;18.504;2023-02-28T17:09:18;9;8;6
51258;PMS7003;37327;54.254;18.504;2023-02-28T17:12:38;10;7;6
51258;PMS7003;37327;54.254;18.504;2023-02-28T17:15:55;8;8;5
51258;PMS7003;37327;54.254;18.504;2023-02-28T17:19:13;7;6;5
51258;PMS7003;37327;54.254;18.504;2023-02-28T17:22:32;10;7;6
51258;PMS7003;37327;54.254;18.504;2023-02-28T17:25:49;6;5;5
51258;PMS7003;37327;54.254;18.504;2023-02-28T17:29:14;6;5;4
51258;PMS7003;37327;54.254;18.504;2023-02-28T17:32:33;6;4;3
51258;PMS7003;37327;54.254;18.504;2023-02-28T17:35:50;2;2;2
51258;PMS7003;37327;54.254;18.504;2023-02-28T17:39:09;3;2;2
51258;PMS7003;37327;54.254;18.504;2023-02-28T17:42:30;2;1;1
51258;PMS7003;37327;54.254;18.504;2023-02-28T17:45:48;2;2;1
51258;PMS7003;37327;54.254;18.504;2023-02-28T17:49:05;1;1;0
51258;PMS7003;37327;54.254;18.504;2023-02-28T17:52:22;2;2;0
51258;PMS7003;37327;54.254;18.504;2023-02-28T17:55:39;0;0;0
51258;PMS7003;37327;54.254;18.504;2023-02-28T17:58:57;2;1;1
51258;PMS7003;37327;54.254;18.504;2023-02-28T18:02:15;3;2;1
51258;PMS7003;37327;54.254;18.504;2023-02-28T18:05:33;1;1;1
51258;PMS7003;37327;54.254;18.504;2023-02-28T18:08:52;3;2;1
51258;PMS7003;37327;54.254;18.504;2023-02-28T18:12:09;2;2;2
51258;PMS7003;37327;54.254;18.504;2023-02-28T18:15:27;1;1;1
51258;PMS7003;37327;54.254;18.504;2023-02-28T18:18:44;0;0;0
51258;PMS7003;37327;54.254;18.504;2023-02-28T18:22:01;3;1;1
51258;PMS7003;37327;54.254;18.504;2023-02-28T18:25:18;4;2;2
51258;PMS7003;37327;54.254;18.504;2023-02-28T18:28:38;1;1;1
51258;PMS7003;37327;54.254;18.504;2023-02-28T18:31:59;1;0;0
51258;PMS7003;37327;54.254;18.504;2023-02-28T18:35:18;0;0;0
51258;PMS7003;37327;54.254;18.504;2023-02-28T18:38:47;2;0;0
51258;PMS7003;37327;54.254;18.504;2023-02-28T18:42:05;0;0;0
51258;PMS7003;37327;54.254;18.504;2023-02-28T18:45:24;1;1;1
51258;PMS7003;37327;54.254;18.504;2023-02-28T18:48:43;1;1;0
51258;PMS7003;37327;54.254;18.504;2023-02-28T18:52:01;3;2;1
51258;PMS7003;37327;54.254;18.504;2023-02-28T18:55:19;1;1;0
51258;PMS7003;37327;54.254;18.504;2023-02-28T18:58:38;0;0;0
51258;PMS7003;37327;54.254;18.504;2023-02-28T19:01:56;2;1;1
51258;PMS7003;37327;54.254;18.504;2023-02-28T19:05:13;0;0;0
51258;PMS7003;37327;54.254;18.504;2023-02-28T19:08:31;3;2;2
51258;PMS7003;37327;54.254;18.504;2023-02-28T19:11:48;3;2;1
51258;PMS7003;37327;54.254;18.504;2023-02-28T19:15:05;1;1;1
51258;PMS7003;37327;54.254;18.504;2023-02-28T19:18:23;2;2;1
51258;PMS7003;37327;54.254;18.504;2023-02-28T19:21:41;3;1;0
51258;PMS7003;37327;54.254;18.504;2023-02-28T19:24:58;2;2;2
51258;PMS7003;37327;54.254;18.504;2023-02-28T19:28:15;2;1;1
51258;PMS7003;37327;54.254;18.504;2023-02-28T19:31:33;2;1;0
51258;PMS7003;37327;54.254;18.504;2023-02-28T19:34:50;0;0;0
51258;PMS7003;37327;54.254;18.504;2023-02-28T19:38:08;2;1;1
51258;PMS7003;37327;54.254;18.504;2023-02-28T19:41:25;1;1;1
51258;PMS7003;37327;54.254;18.504;2023-02-28T19:44:42;0;0;0
51258;PMS7003;37327;54.254;18.504;2023-02-28T19:48:00;2;2;2
51258;PMS7003;37327;54.254;18.504;2023-02-28T19:51:18;5;1;0
51258;PMS7003;37327;54.254;18.504;2023-02-28T19:54:35;7;3;2
51258;PMS7003;37327;54.254;18.504;2023-02-28T19:57:52;2;1;1
51258;PMS7003;37327;54.254;18.504;2023-02-28T20:01:13;1;0;0
51258;PMS7003;37327;54.254;18.504;2023-02-28T20:04:32;2;0;0
51258;PMS7003;37327;54.254;18.504;2023-02-28T20:07:50;0;0;0
51258;PMS7003;37327;54.254;18.504;2023-02-28T20:11:08;2;1;1
51258;PMS7003;37327;54.254;18.504;2023-02-28T20:14:28;1;0;0
51258;PMS7003;37327;54.254;18.504;2023-02-28T20:17:45;0;0;0
51258;PMS7003;37327;54.254;18.504;2023-02-28T20:21:02;1;1;0
51258;PMS7003;37327;54.254;18.504;2023-02-28T20:24:20;1;1;1
51258;PMS7003;37327;54.254;18.504;2023-02-28T20:27:41;0;0;0
51258;PMS7003;37327;54.254;18.504;2023-02-28T20:30:58;7;1;1
51258;PMS7003;37327;54.254;18.504;2023-02-28T20:34:16;1;1;0
51258;PMS7003;37327;54.254;18.504;2023-02-28T20:37:35;0;0;0
51258;PMS7003;37327;54.254;18.504;2023-02-28T20:40:57;1;1;1
51258;PMS7003;37327;54.254;18.504;2023-02-28T20:44:15;3;1;0
51258;PMS7003;37327;54.254;18.504;2023-02-28T20:47:33;1;1;0
51258;PMS7003;37327;54.254;18.504;2023-02-28T20:50:51;1;0;0
51258;PMS7003;37327;54.254;18.504;2023-02-28T20:54:10;0;0;0
51258;PMS7003;37327;54.254;18.504;2023-02-28T20:57:28;0;0;0
51258;PMS7003;37327;54.254;18.504;2023-02-28T21:00:46;1;0;0
51258;PMS7003;37327;54.254;18.504;2023-02-28T21:04:04;1;0;0
51258;PMS7003;37327;54.254;18.504;2023-02-28T21:07:22;0;0;0
51258;PMS7003;37327;54.254;18.504;2023-02-28T21:10:41;3;1;0
51258;PMS7003;37327;54.254;18.504;2023-02-28T21:13:59;2;0;0
51258;PMS7003;37327;54.254;18.504;2023-02-28T21:17:18;3;1;0
51258;PMS7003;37327;54.254;18.504;2023-02-28T21:20:36;1;0;0
51258;PMS7003;37327;54.254;18.504;2023-02-28T21:23:53;1;0;0
51258;PMS7003;37327;54.254;18.504;2023-02-28T21:27:13;1;0;0
51258;PMS7003;37327;54.254;18.504;2023-02-28T21:30:31;1;0;0
51258;PMS7003;37327;54.254;18.504;2023-02-28T21:33:48;3;0;0
51258;PMS7003;37327;54.254;18.504;2023-02-28T21:37:07;1;0;0
51258;PMS7003;37327;54.254;18.504;2023-02-28T21:40:26;1;0;0
51258;PMS7003;37327;54.254;18.504;2023-02-28T21:43:44;0;0;0
51258;PMS7003;37327;54.254;18.504;2023-02-28T21:47:03;0;0;0
51258;PMS7003;37327;54.254;18.504;2023-02-28T21:50:20;1;0;0
51258;PMS7003;37327;54.254;18.504;2023-02-28T21:53:38;0;0;0
51258;PMS7003;37327;54.254;18.504;2023-02-28T21:56:56;0;0;0
51258;PMS7003;37327;54.254;18.504;2023-02-28T22:00:17;1;0;0
51258;PMS7003;37327;54.254;18.504;2023-02-28T22:03:35;0;0;0
51258;PMS7003;37327;54.254;18.504;2023-02-28T22:06:53;1;0;0
51258;PMS7003;37327;54.254;18.504;2023-02-28T22:10:15;1;1;1
51258;PMS7003;37327;54.254;18.504;2023-02-28T22:13:32;1;0;0
51258;PMS7003;37327;54.254;18.504;2023-02-28T22:16:50;1;0;0
51258;PMS7003;37327;54.254;18.504;2023-02-28T22:20:08;1;0;0
51258;PMS7003;37327;54.254;18.504;2023-02-28T22:23:27;2;0;0
51258;PMS7003;37327;54.254;18.504;2023-02-28T22:26:45;0;0;0
51258;PMS7003;37327;54.254;18.504;2023-02-28T22:30:04;0;0;0
51258;PMS7003;37327;54.254;18.504;2023-02-28T22:33:22;2;2;1
51258;PMS7003;37327;54.254;18.504;2023-02-28T22:36:40;2;1;1
51258;PMS7003;37327;54.254;18.504;2023-02-28T22:39:58;1;1;0
51258;PMS7003;37327;54.254;18.504;2023-02-28T22:43:15;2;2;1
51258;PMS7003;37327;54.254;18.504;2023-02-28T22:46:33;0;0;0
51258;PMS7003;37327;54.254;18.504;2023-02-28T22:49:51;0;0;0
51258;PMS7003;37327;54.254;18.504;2023-02-28T22:53:08;0;0;0
51258;PMS7003;37327;54.254;18.504;2023-02-28T22:56:26;0;0;0
51258;PMS7003;37327;54.254;18.504;2023-02-28T22:59:45;1;0;0
51258;PMS7003;37327;54.254;18.504;2023-02-28T23:03:03;3;0;0
51258;PMS7003;37327;54.254;18.504;2023-02-28T23:06:24;0;0;0
51258;PMS7003;37327;54.254;18.504;2023-02-28T23:09:43;0;0;0
51258;PMS7003;37327;54.254;18.504;2023-02-28T23:13:01;0;0;0
51258;PMS7003;37327;54.254;18.504;2023-02-28T23:16:18;1;0;0
51258;PMS7003;37327;54.254;18.504;2023-02-28T23:19:35;0;0;0
51258;PMS7003;37327;54.254;18.504;2023-02-28T23:22:53;2;0;0
51258;PMS7003;37327;54.254;18.504;2023-02-28T23:26:11;0;0;0
51258;PMS7003;37327;54.254;18.504;2023-02-28T23:29:28;1;1;0
51258;PMS7003;37327;54.254;18.504;2023-02-28T23:32:45;0;0;0
51258;PMS7003;37327;54.254;18.504;2023-02-28T23:36:06;0;0;0
51258;PMS7003;37327;54.254;18.504;2023-02-28T23:39:27;0;0;0
51258;PMS7003;37327;54.254;18.504;2023-02-28T23:42:45;2;1;0
51258;PMS7003;37327;54.254;18.504;2023-02-28T23:46:03;3;1;1
51258;PMS7003;37327;54.254;18.504;2023-02-28T23:49:21;0;0;0
51258;PMS7003;37327;54.254;18.504;2023-02-28T23:52:38;0;0;0
51258;PMS7003;37327;54.254;18.504;2023-02-28T23:55:56;0;0;0
51258;PMS7003;37327;54.254;18.504;2023-02-28T23:59:13;1;1;0
